Time;durP1;ratioP1;P1;durP2;ratioP2;P2;SDS_P1;SDS_P2;PMS_P1;PMS_P2;Temp;Humidity;BMP_temperature;BMP_pressure;BME280_temperature;BME280_humidity;BME280_pressure;Samples;Min_cycle;Max_cycle;Signal;HPM_P1;HPM_P2
2021/01/22 00:00:18;;;;;;;1.88;1.45;;;13.80;77.40;;;;;;5091861;28;20058;-46
2021/01/22 00:02:44;;;;;;;2.35;1.20;;;13.80;77.50;;;;;;5086721;28;20027;-46
2021/01/22 00:05:11;;;;;;;3.40;1.10;;;13.80;77.30;;;;;;5096051;28;20044;-45
2021/01/22 00:07:37;;;;;;;2.20;1.30;;;13.80;77.40;;;;;;5087896;28;20033;-45
2021/01/22 00:10:03;;;;;;;2.90;1.40;;;13.80;77.40;;;;;;5089037;28;20617;-49
2021/01/22 00:12:30;;;;;;;1.42;1.15;;;13.80;77.40;;;;;;5085613;28;20059;-45
2021/01/22 00:14:56;;;;;;;3.47;1.40;;;13.80;77.40;;;;;;5088810;28;20131;-46
2021/01/22 00:17:22;;;;;;;2.80;1.85;;;13.80;77.40;;;;;;5093158;28;20166;-47
2021/01/22 00:19:48;;;;;;;2.60;1.20;;;13.80;77.40;;;;;;5089857;28;20083;-45
2021/01/22 00:22:14;;;;;;;2.28;1.40;;;13.80;77.40;;;;;;5089548;28;20052;-45
2021/01/22 00:24:41;;;;;;;2.65;1.58;;;13.80;77.40;;;;;;5091322;28;20025;-47
2021/01/22 00:27:07;;;;;;;3.03;1.25;;;13.80;77.50;;;;;;5084666;28;20091;-47
2021/01/22 00:29:33;;;;;;;3.47;1.20;;;13.80;77.40;;;;;;5090893;28;20035;-47
2021/01/22 00:31:59;;;;;;;1.88;1.35;;;13.80;77.40;;;;;;5091707;28;20823;-46
2021/01/22 00:34:25;;;;;;;2.38;1.30;;;13.80;77.40;;;;;;5093673;28;20028;-47
2021/01/22 00:36:51;;;;;;;1.75;1.20;;;13.80;77.40;;;;;;5092511;28;20036;-45
2021/01/22 00:39:18;;;;;;;2.88;1.17;;;13.80;77.40;;;;;;5088599;28;20101;-46
2021/01/22 00:41:44;;;;;;;1.13;0.90;;;13.80;77.40;;;;;;5088639;28;20039;-46
2021/01/22 00:44:10;;;;;;;2.78;1.20;;;13.80;77.40;;;;;;5095743;28;20024;-45
2021/01/22 00:46:37;;;;;;;1.30;1.05;;;13.80;77.40;;;;;;5088660;28;20092;-46
2021/01/22 00:49:03;;;;;;;2.13;1.17;;;13.90;77.40;;;;;;5092941;28;20024;-45
2021/01/22 00:51:29;;;;;;;2.25;1.40;;;13.80;77.40;;;;;;5085349;28;20024;-46
2021/01/22 00:53:55;;;;;;;2.92;1.20;;;13.90;77.40;;;;;;5087835;28;20111;-49
2021/01/22 00:56:22;;;;;;;2.15;1.00;;;13.90;77.50;;;;;;5093527;28;20041;-45
2021/01/22 00:58:48;;;;;;;1.60;1.00;;;13.90;77.50;;;;;;5093406;28;20077;-47
2021/01/22 01:01:14;;;;;;;1.60;0.90;;;13.90;77.50;;;;;;5083928;28;20353;-45
2021/01/22 01:03:40;;;;;;;1.88;1.17;;;13.90;77.40;;;;;;5091816;28;20025;-45
2021/01/22 01:06:07;;;;;;;2.08;1.20;;;13.90;77.50;;;;;;5082234;28;20100;-44
2021/01/22 01:08:33;;;;;;;1.33;1.10;;;13.90;77.40;;;;;;5089527;28;20024;-46
2021/01/22 01:10:59;;;;;;;2.70;1.35;;;13.90;77.40;;;;;;5088466;28;20076;-45
2021/01/22 01:13:25;;;;;;;3.80;1.20;;;13.90;77.50;;;;;;5089631;28;20087;-46
2021/01/22 01:15:51;;;;;;;2.40;1.00;;;13.90;77.40;;;;;;5092458;28;20036;-45
2021/01/22 01:18:17;;;;;;;1.73;1.20;;;13.90;77.40;;;;;;5097127;28;20031;-46
2021/01/22 01:20:44;;;;;;;1.40;1.05;;;13.90;77.40;;;;;;5084526;28;20473;-47
2021/01/22 01:23:14;;;;;;;3.05;1.02;;;13.90;77.40;;;;;;5086897;28;20024;-46
2021/01/22 01:25:41;;;;;;;1.92;0.93;;;13.90;77.40;;;;;;5086342;28;20022;-48
2021/01/22 01:28:08;;;;;;;2.42;1.33;;;13.90;77.40;;;;;;5086472;28;20088;-47
2021/01/22 01:30:35;;;;;;;2.38;1.10;;;13.90;77.50;;;;;;5086796;28;20048;-44
2021/01/22 01:33:02;;;;;;;2.40;1.17;;;13.90;77.50;;;;;;5088450;28;20036;-45
2021/01/22 01:35:28;;;;;;;3.45;1.23;;;13.90;77.50;;;;;;5081702;28;20506;-45
2021/01/22 01:37:55;;;;;;;2.55;0.75;;;13.90;77.50;;;;;;5090182;28;20028;-44
2021/01/22 01:40:21;;;;;;;2.88;1.10;;;13.90;77.50;;;;;;5084820;28;20032;-44
2021/01/22 01:42:47;;;;;;;2.08;1.10;;;13.90;77.50;;;;;;5086394;28;20059;-45
2021/01/22 01:45:14;;;;;;;1.50;1.25;;;13.90;77.50;;;;;;5084264;28;20438;-45
2021/01/22 01:47:43;;;;;;;2.22;1.25;;;13.90;77.50;;;;;;5076509;28;20029;-44
2021/01/22 01:50:10;;;;;;;1.38;1.23;;;13.90;77.50;;;;;;5081617;28;20425;-46
2021/01/22 01:52:37;;;;;;;3.47;1.10;;;13.90;77.50;;;;;;5076850;28;20027;-46
2021/01/22 01:55:03;;;;;;;2.88;1.33;;;13.90;77.50;;;;;;5085469;28;20029;-45
2021/01/22 01:57:29;;;;;;;1.63;1.10;;;13.90;77.40;;;;;;5084664;28;20071;-45
2021/01/22 01:59:56;;;;;;;2.72;1.10;;;13.90;77.50;;;;;;5085921;28;20040;-44
2021/01/22 02:02:22;;;;;;;1.20;0.85;;;13.90;77.50;;;;;;5082598;28;20036;-44
2021/01/22 02:04:48;;;;;;;1.75;1.30;;;13.90;77.50;;;;;;5092375;28;20040;-45
2021/01/22 02:07:14;;;;;;;2.95;1.30;;;13.90;77.50;;;;;;5085822;28;20024;-44
2021/01/22 02:09:41;;;;;;;2.95;1.10;;;13.90;77.50;;;;;;5085910;28;20040;-46
2021/01/22 02:12:07;;;;;;;1.27;1.05;;;13.90;77.50;;;;;;5111933;28;20020;-46
2021/01/22 02:14:34;;;;;;;2.20;1.00;;;13.90;77.50;;;;;;5085405;28;20058;-45
2021/01/22 02:17:00;;;;;;;3.17;1.27;;;13.90;77.50;;;;;;5067944;28;20092;-46
2021/01/22 02:19:53;;;;;;;1.55;0.90;;;13.90;77.50;;;;;;5083727;28;20097;-45
2021/01/22 02:22:20;;;;;;;3.85;1.15;;;13.90;77.50;;;;;;5068322;28;20484;-44
2021/01/22 02:24:46;;;;;;;2.85;1.10;;;14.00;77.60;;;;;;5083337;28;20032;-45
2021/01/22 02:27:13;;;;;;;1.50;1.08;;;14.00;77.60;;;;;;5067364;28;20036;-46
2021/01/22 02:29:39;;;;;;;2.35;1.00;;;13.90;77.50;;;;;;5101117;28;20048;-45
2021/01/22 02:32:06;;;;;;;3.22;0.95;;;14.00;77.50;;;;;;5083692;28;20027;-45
2021/01/22 02:34:37;;;;;;;1.67;1.08;;;14.00;77.60;;;;;;5100575;28;20025;-47
2021/01/22 02:37:05;;;;;;;1.48;1.15;;;14.00;77.60;;;;;;5068740;28;20052;-45
2021/01/22 02:39:54;;;;;;;1.45;1.00;;;14.00;77.60;;;;;;5082956;28;20033;-45
2021/01/22 02:42:24;;;;;;;1.27;1.02;;;13.90;77.50;;;;;;5104863;28;20040;-48
2021/01/22 02:44:53;;;;;;;1.48;1.00;;;14.00;77.60;;;;;;5085133;28;20020;-46
2021/01/22 02:47:19;;;;;;;1.05;0.90;;;14.00;77.60;;;;;;5067709;28;20052;-45
2021/01/22 02:49:45;;;;;;;1.65;1.15;;;14.00;77.60;;;;;;5082401;28;20567;-45
2021/01/22 02:52:12;;;;;;;1.63;1.20;;;14.00;77.60;;;;;;5074864;28;20032;-47
2021/01/22 02:54:38;;;;;;;1.65;1.02;;;14.00;77.60;;;;;;5084423;28;20036;-45
2021/01/22 02:57:23;;;;;;;1.20;1.00;;;13.90;77.50;;;;;;5083935;28;20032;-42
2021/01/22 02:59:55;;;;;;;1.42;1.05;;;14.00;77.60;;;;;;5074134;28;20041;-42
2021/01/22 03:02:51;;;;;;;1.70;1.10;;;14.00;77.60;;;;;;5084883;28;20063;-43
2021/01/22 03:05:18;;;;;;;1.77;1.17;;;13.90;77.60;;;;;;5083882;28;20025;-43
2021/01/22 03:07:53;;;;;;;2.65;1.10;;;14.00;77.60;;;;;;5084550;28;20012;-45
2021/01/22 03:10:20;;;;;;;1.20;1.10;;;14.00;77.50;;;;;;5065875;28;20036;-47
2021/01/22 03:12:47;;;;;;;;;;;14.00;77.60;;;;;;5073001;28;20130;-45
2021/01/22 03:15:15;;;;;;;1.75;1.20;;;14.00;77.60;;;;;;5108956;27;19916;-46
2021/01/22 03:17:42;;;;;;;1.73;1.00;;;14.00;77.60;;;;;;5069503;28;20049;-43
2021/01/22 03:20:12;;;;;;;1.83;1.05;;;14.00;78.30;;;;;;5076107;28;20059;-43
2021/01/22 03:22:38;;;;;;;1.27;0.90;;;14.00;77.60;;;;;;5059718;28;20029;-45
2021/01/22 03:25:05;;;;;;;1.27;1.15;;;14.00;77.60;;;;;;5077627;28;20044;-45
2021/01/22 03:27:31;;;;;;;1.10;0.80;;;14.00;77.50;;;;;;5077580;28;20088;-45
2021/01/22 03:29:57;;;;;;;1.20;1.10;;;14.00;77.60;;;;;;5074332;28;20060;-44
2021/01/22 03:32:24;;;;;;;1.58;1.00;;;14.00;77.60;;;;;;5069907;28;20429;-45
2021/01/22 03:34:50;;;;;;;1.23;0.93;;;14.00;77.60;;;;;;5078989;28;20048;-46
2021/01/22 03:37:16;;;;;;;1.17;1.00;;;13.90;77.50;;;;;;5074216;28;20028;-47
2021/01/22 03:39:42;;;;;;;0.90;0.85;;;13.90;77.40;;;;;;5080304;28;20039;-45
2021/01/22 03:42:09;;;;;;;2.42;0.90;;;14.00;77.50;;;;;;5088296;28;20028;-47
2021/01/22 03:44:36;;;;;;;1.10;0.90;;;13.90;77.50;;;;;;5103751;28;20020;-47
2021/01/22 03:47:02;;;;;;;;;;;13.90;77.60;;;;;;5104556;28;20122;-47
2021/01/22 03:49:28;;;;;;;1.92;1.10;;;14.00;77.50;;;;;;5097679;28;19955;-45
2021/01/22 03:51:54;;;;;;;1.25;1.15;;;14.00;77.50;;;;;;5065553;28;20032;-46
2021/01/22 03:54:21;;;;;;;1.10;0.90;;;13.90;77.50;;;;;;5063968;28;20056;-44
2021/01/22 03:56:47;;;;;;;3.15;1.00;;;13.90;77.50;;;;;;5063379;28;20779;-47
2021/01/22 03:59:13;;;;;;;2.35;1.10;;;14.00;77.50;;;;;;5071609;28;20052;-44
2021/01/22 04:01:39;;;;;;;1.05;0.98;;;13.90;77.50;;;;;;5082184;28;20021;-44
2021/01/22 04:04:05;;;;;;;1.70;1.00;;;13.90;77.40;;;;;;5067905;28;20017;-47
2021/01/22 04:06:31;;;;;;;1.35;0.90;;;13.90;77.50;;;;;;5063432;28;20025;-45
2021/01/22 04:08:57;;;;;;;1.13;0.93;;;14.00;77.50;;;;;;5063610;28;20026;-45
2021/01/22 04:11:24;;;;;;;1.08;0.93;;;13.90;77.40;;;;;;5086353;28;20039;-45
2021/01/22 04:13:50;;;;;;;1.05;0.75;;;14.00;77.50;;;;;;5103808;28;20020;-44
2021/01/22 04:16:16;;;;;;;1.10;0.80;;;14.00;77.50;;;;;;5103610;28;20532;-44
2021/01/22 04:18:42;;;;;;;1.50;0.95;;;14.00;77.50;;;;;;5089732;28;20039;-44
2021/01/22 04:21:08;;;;;;;1.63;0.80;;;14.00;77.50;;;;;;5081919;28;20035;-45
2021/01/22 04:23:35;;;;;;;1.25;0.90;;;13.90;77.40;;;;;;5074987;28;20099;-46
2021/01/22 04:26:01;;;;;;;1.27;0.80;;;13.90;77.40;;;;;;5083131;28;20028;-45
2021/01/22 04:28:27;;;;;;;1.00;0.90;;;13.90;77.50;;;;;;5083082;28;20024;-45
2021/01/22 04:30:53;;;;;;;1.52;0.82;;;13.90;77.50;;;;;;5082977;28;20032;-45
2021/01/22 04:33:19;;;;;;;2.13;1.10;;;13.90;77.40;;;;;;5082380;28;20126;-47
2021/01/22 04:35:46;;;;;;;1.10;0.82;;;13.90;77.50;;;;;;5076449;28;20044;-46
2021/01/22 04:38:12;;;;;;;1.63;1.05;;;13.90;77.50;;;;;;5082886;28;20043;-44
2021/01/22 04:40:38;;;;;;;4.00;1.00;;;13.90;77.50;;;;;;5082979;28;20115;-44
2021/01/22 04:43:04;;;;;;;0.95;0.90;;;13.90;77.40;;;;;;5077477;28;20052;-46
2021/01/22 04:45:30;;;;;;;4.20;1.27;;;13.90;77.50;;;;;;5075335;28;20551;-45
2021/01/22 04:47:59;;;;;;;1.52;0.95;;;13.90;77.40;;;;;;5075448;28;20032;-46
2021/01/22 04:50:26;;;;;;;2.08;0.90;;;13.90;77.40;;;;;;5075459;28;20028;-45
2021/01/22 04:52:54;;;;;;;3.03;1.02;;;13.90;77.50;;;;;;5075567;28;20044;-45
2021/01/22 04:55:20;;;;;;;3.47;1.00;;;13.90;77.40;;;;;;5079728;28;20075;-45
2021/01/22 04:57:46;;;;;;;1.00;0.70;;;13.90;77.50;;;;;;5093642;28;20040;-46
2021/01/22 05:00:14;;;;;;;1.63;0.90;;;13.90;77.40;;;;;;5079270;28;20420;-45
2021/01/22 05:02:41;;;;;;;1.85;1.00;;;13.90;77.40;;;;;;5072704;28;20050;-47
2021/01/22 05:05:07;;;;;;;1.15;1.00;;;13.90;77.50;;;;;;5074015;28;20622;-44
2021/01/22 05:07:34;;;;;;;1.52;0.95;;;13.90;77.50;;;;;;5077536;28;20063;-45
2021/01/22 05:10:00;;;;;;;1.10;1.00;;;13.90;77.40;;;;;;5077209;28;20032;-45
2021/01/22 05:12:36;;;;;;;2.90;1.05;;;13.90;77.40;;;;;;5076997;28;20048;-47
2021/01/22 05:15:25;;;;;;;2.10;0.95;;;13.90;77.50;;;;;;5094816;28;20052;-45
2021/01/22 05:18:01;;;;;;;;;;;13.90;77.50;;;;;;5086222;28;20101;-46
2021/01/22 05:20:45;;;;;;;1.23;0.80;;;13.90;77.40;;;;;;5088247;28;20394;-46
2021/01/22 05:23:11;;;;;;;0.90;0.90;;;13.90;77.40;;;;;;5086724;28;20036;-44
2021/01/22 05:26:06;;;;;;;2.05;1.00;;;13.90;77.40;;;;;;5088374;28;20016;-44
2021/01/22 05:28:41;;;;;;;2.38;0.77;;;13.90;77.40;;;;;;5086442;28;20023;-46
2021/01/22 05:31:12;;;;;;;0.73;0.70;;;13.90;77.40;;;;;;5088474;28;20028;-45
2021/01/22 05:33:42;;;;;;;1.40;0.70;;;13.90;77.40;;;;;;5088847;28;20187;-45
2021/01/22 05:36:32;;;;;;;1.00;0.90;;;13.90;77.50;;;;;;5094587;28;20734;-46
2021/01/22 05:39:03;;;;;;;0.85;0.80;;;13.90;77.50;;;;;;5089996;28;20044;-45
2021/01/22 05:41:30;;;;;;;1.13;0.98;;;13.90;77.40;;;;;;5094291;28;20028;-44
2021/01/22 05:43:56;;;;;;;1.30;1.10;;;13.90;77.50;;;;;;5090575;28;20097;-44
2021/01/22 05:46:27;;;;;;;1.13;0.93;;;13.90;77.50;;;;;;5095590;28;20026;-47
2021/01/22 05:49:10;;;;;;;1.08;1.00;;;13.90;77.50;;;;;;5094015;28;20028;-46
2021/01/22 05:51:36;;;;;;;1.70;0.90;;;13.90;77.50;;;;;;5087006;28;20536;-46
2021/01/22 05:54:02;;;;;;;1.17;1.00;;;13.90;77.40;;;;;;5090339;28;20032;-44
2021/01/22 05:56:28;;;;;;;1.40;1.30;;;13.90;77.40;;;;;;5089252;28;20051;-44
2021/01/22 05:58:54;;;;;;;0.82;0.80;;;13.90;77.40;;;;;;5088981;28;20128;-45
2021/01/22 06:01:21;;;;;;;1.10;1.00;;;13.90;77.50;;;;;;5088668;28;20035;-45
2021/01/22 06:03:49;;;;;;;1.52;1.17;;;13.90;77.40;;;;;;5080374;28;20029;-46
2021/01/22 06:06:16;;;;;;;1.00;0.85;;;13.90;77.50;;;;;;5083088;28;20032;-45
2021/01/22 06:08:58;;;;;;;1.00;0.90;;;13.90;77.40;;;;;;5085638;28;20033;-47
2021/01/22 06:11:25;;;;;;;1.00;0.90;;;13.90;77.50;;;;;;5096608;28;20052;-46
2021/01/22 06:13:51;;;;;;;;;;;13.90;77.40;;;;;;5083437;28;20039;-45
2021/01/22 06:16:25;;;;;;;2.05;0.73;;;13.90;77.40;;;;;;5081395;28;19920;-46
2021/01/22 06:18:58;;;;;;;0.98;0.93;;;13.80;77.40;;;;;;5074363;28;20223;-45
2021/01/22 06:21:25;;;;;;;1.17;0.80;;;13.90;77.50;;;;;;5064207;28;20029;-48
2021/01/22 06:23:52;;;;;;;0.85;0.82;;;13.90;77.40;;;;;;5080455;28;20489;-45
2021/01/22 06:26:22;;;;;;;1.60;0.70;;;13.80;77.40;;;;;;5074639;28;20036;-47
2021/01/22 06:28:51;;;;;;;1.20;0.90;;;13.90;77.50;;;;;;5078991;28;20639;-47
2021/01/22 06:31:20;;;;;;;0.90;0.80;;;13.80;77.40;;;;;;5073899;28;20051;-45
2021/01/22 06:33:47;;;;;;;0.80;0.80;;;13.80;77.40;;;;;;5079406;28;20107;-45
2021/01/22 06:36:13;;;;;;;0.70;0.70;;;13.90;78.10;;;;;;5077293;28;20072;-46
2021/01/22 06:38:40;;;;;;;0.70;0.70;;;13.80;77.40;;;;;;5080394;28;20025;-45
2021/01/22 06:41:07;;;;;;;1.70;0.90;;;13.80;77.40;;;;;;5080577;28;20105;-46
2021/01/22 06:43:36;;;;;;;0.70;0.70;;;13.80;77.30;;;;;;5094447;28;20032;-45
2021/01/22 06:46:04;;;;;;;0.90;0.90;;;13.80;77.40;;;;;;5095983;28;20032;-45
2021/01/22 06:48:50;;;;;;;1.77;0.93;;;13.80;77.40;;;;;;5089227;28;20040;-47
2021/01/22 06:51:17;;;;;;;0.60;0.60;;;13.80;77.40;;;;;;5087070;28;20029;-46
2021/01/22 06:54:05;;;;;;;0.80;0.80;;;13.80;77.40;;;;;;5098777;28;20024;-45
2021/01/22 06:56:32;;;;;;;0.70;0.70;;;13.80;77.40;;;;;;5095034;28;20251;-46
2021/01/22 06:59:29;;;;;;;1.90;0.93;;;13.80;77.30;;;;;;5094726;28;20119;-45
2021/01/22 07:01:58;;;;;;;1.00;0.90;;;13.80;77.40;;;;;;5089028;28;20083;-46
2021/01/22 07:04:42;;;;;;;1.42;0.93;;;13.80;77.40;;;;;;5094082;28;20272;-45
2021/01/22 07:07:08;;;;;;;1.13;0.80;;;13.80;77.30;;;;;;5087335;28;20029;-46
2021/01/22 07:09:47;;;;;;;0.88;0.75;;;13.80;77.40;;;;;;5083658;28;20043;-44
2021/01/22 07:12:13;;;;;;;0.77;0.77;;;13.80;77.40;;;;;;5087784;28;20024;-46
2021/01/22 07:14:44;;;;;;;1.15;0.70;;;13.80;77.40;;;;;;5084522;28;20535;-45
2021/01/22 07:17:15;;;;;;;0.80;0.80;;;13.80;77.30;;;;;;5083552;28;20040;-48
2021/01/22 07:19:54;;;;;;;0.98;0.88;;;13.80;77.40;;;;;;5084560;28;20050;-45
2021/01/22 07:22:21;;;;;;;1.00;0.90;;;13.80;77.40;;;;;;5084373;28;20027;-47
2021/01/22 07:24:54;;;;;;;1.00;0.90;;;13.80;77.30;;;;;;5084458;28;20088;-47
2021/01/22 07:27:20;;;;;;;1.75;0.80;;;13.80;77.40;;;;;;5083022;28;20024;-44
2021/01/22 07:30:08;;;;;;;1.83;0.98;;;13.80;77.40;;;;;;5085752;28;20021;-46
2021/01/22 07:32:34;;;;;;;0.90;0.70;;;13.80;77.40;;;;;;5084068;28;20028;-44
2021/01/22 07:35:00;;;;;;;0.80;0.80;;;13.80;77.40;;;;;;5084149;28;20036;-47
2021/01/22 07:37:27;;;;;;;1.23;0.93;;;13.80;77.40;;;;;;5083056;28;20036;-45
2021/01/22 07:39:54;;;;;;;0.70;0.70;;;13.80;77.40;;;;;;5082487;28;20029;-46
2021/01/22 07:42:24;;;;;;;0.85;0.85;;;13.80;77.40;;;;;;5083937;28;20564;-45
2021/01/22 07:44:51;;;;;;;0.80;0.80;;;13.80;77.40;;;;;;5084108;28;20682;-45
2021/01/22 07:47:25;;;;;;;1.60;1.00;;;13.80;77.40;;;;;;5084236;28;20056;-45
2021/01/22 07:49:52;;;;;;;1.27;0.80;;;13.70;78.00;;;;;;5084042;28;20028;-45
2021/01/22 07:52:18;;;;;;;;;;;13.70;77.30;;;;;;5084352;28;20024;-45
2021/01/22 07:54:44;;;;;;;0.70;0.70;;;13.80;77.40;;;;;;5115460;28;20489;-45
2021/01/22 07:57:18;;;;;;;0.73;0.73;;;13.70;77.30;;;;;;5084022;28;20674;-45
2021/01/22 07:59:44;;;;;;;1.00;0.80;;;13.70;77.30;;;;;;5090987;28;20032;-45
2021/01/22 08:02:29;;;;;;;2.15;0.88;;;13.70;77.30;;;;;;5103997;28;20036;-46
2021/01/22 08:04:59;;;;;;;0.90;0.80;;;13.70;77.30;;;;;;5099391;28;20370;-45
2021/01/22 08:07:41;;;;;;;1.35;0.90;;;13.70;77.30;;;;;;5083846;28;20028;-45
2021/01/22 08:10:11;;;;;;;0.70;0.70;;;13.70;77.30;;;;;;5083701;28;20024;-43
2021/01/22 08:12:39;;;;;;;0.80;0.80;;;13.70;77.30;;;;;;5090084;28;20046;-44
2021/01/22 08:15:17;;;;;;;;;;;13.70;77.30;;;;;;5082591;28;20028;-46
2021/01/22 08:17:47;;;;;;;0.90;0.67;;;13.70;77.30;;;;;;5082504;28;19971;-44
2021/01/22 08:20:17;;;;;;;0.80;0.80;;;13.70;77.30;;;;;;5083543;28;20122;-45
2021/01/22 08:22:43;;;;;;;1.35;0.90;;;13.70;77.40;;;;;;5083372;28;20090;-45
2021/01/22 08:25:10;;;;;;;1.10;0.90;;;13.70;77.30;;;;;;5083584;28;20057;-45
2021/01/22 08:27:36;;;;;;;1.15;0.90;;;13.70;77.30;;;;;;5083508;28;20086;-45
2021/01/22 08:30:04;;;;;;;0.80;0.80;;;13.70;77.30;;;;;;5082993;28;20024;-46
2021/01/22 08:32:30;;;;;;;0.60;0.60;;;13.70;77.40;;;;;;5083340;28;20048;-45
2021/01/22 08:34:57;;;;;;;1.98;0.68;;;13.70;77.40;;;;;;5083405;28;20044;-47
2021/01/22 08:37:23;;;;;;;0.95;0.80;;;13.70;77.40;;;;;;5082199;28;20039;-46
2021/01/22 08:39:51;;;;;;;0.88;0.80;;;13.70;77.30;;;;;;5081935;28;20034;-47
2021/01/22 08:42:18;;;;;;;0.82;0.82;;;13.70;77.30;;;;;;5093437;28;20063;-51
2021/01/22 08:44:57;;;;;;;1.17;1.08;;;13.70;77.40;;;;;;5082702;28;20040;-45
2021/01/22 08:47:24;;;;;;;0.80;0.80;;;13.70;77.40;;;;;;5083054;28;20032;-46
2021/01/22 08:49:56;;;;;;;0.77;0.70;;;13.70;77.30;;;;;;5080847;28;20032;-46
2021/01/22 08:52:23;;;;;;;0.85;0.85;;;13.70;77.40;;;;;;5063022;28;20063;-48
2021/01/22 08:54:52;;;;;;;1.83;1.10;;;13.70;77.30;;;;;;5063213;28;20039;-47
2021/01/22 08:57:18;;;;;;;0.70;0.70;;;13.70;77.40;;;;;;5062838;28;20107;-47
2021/01/22 08:59:52;;;;;;;1.17;0.60;;;13.70;77.40;;;;;;5062862;28;20033;-46
2021/01/22 09:02:35;;;;;;;1.10;0.90;;;13.70;77.40;;;;;;5079562;28;20488;-46
2021/01/22 09:05:06;;;;;;;1.30;0.73;;;13.70;77.40;;;;;;5072536;28;20096;-44
2021/01/22 09:07:32;;;;;;;1.10;0.75;;;13.70;77.40;;;;;;5082747;28;20032;-46
2021/01/22 09:09:58;;;;;;;0.70;0.68;;;13.70;77.40;;;;;;5082981;28;20032;-47
2021/01/22 09:12:26;;;;;;;1.23;1.00;;;13.60;77.30;;;;;;5082935;28;20092;-47
2021/01/22 09:14:53;;;;;;;1.63;0.85;;;13.60;77.30;;;;;;5082852;28;20092;-48
2021/01/22 09:17:36;;;;;;;0.65;0.65;;;13.60;77.30;;;;;;5083181;28;20370;-47
2021/01/22 09:20:09;;;;;;;0.85;0.80;;;13.60;77.30;;;;;;5082921;28;20040;-46
2021/01/22 09:22:36;;;;;;;1.67;0.80;;;13.60;77.30;;;;;;5080980;28;20031;-47
2021/01/22 09:25:04;;;;;;;0.95;0.80;;;13.60;77.40;;;;;;5082844;28;20127;-51
2021/01/22 09:27:30;;;;;;;0.70;0.70;;;13.60;77.40;;;;;;5083053;28;20028;-50
2021/01/22 09:29:56;;;;;;;0.95;0.80;;;13.60;77.40;;;;;;5082819;28;20035;-46
2021/01/22 09:32:22;;;;;;;2.53;1.00;;;13.60;77.40;;;;;;5085353;28;20048;-46
2021/01/22 09:34:49;;;;;;;1.80;0.85;;;13.60;77.30;;;;;;5082111;28;20028;-47
2021/01/22 09:37:15;;;;;;;2.80;0.90;;;13.60;77.40;;;;;;5082756;28;20055;-47
2021/01/22 09:39:41;;;;;;;0.77;0.77;;;13.60;77.40;;;;;;5082852;28;20055;-49
2021/01/22 09:42:07;;;;;;;1.10;0.98;;;13.60;77.40;;;;;;5102746;28;20024;-45
2021/01/22 09:44:34;;;;;;;1.27;0.87;;;13.60;77.40;;;;;;5106580;28;20024;-46
2021/01/22 09:47:00;;;;;;;0.88;0.80;;;13.60;77.40;;;;;;5105884;28;20050;-48
2021/01/22 09:49:26;;;;;;;1.35;0.90;;;13.60;77.40;;;;;;5101439;28;20096;-46
2021/01/22 09:51:52;;;;;;;0.70;0.70;;;13.60;77.40;;;;;;5068555;28;20025;-47
2021/01/22 09:54:18;;;;;;;1.10;1.00;;;13.60;77.40;;;;;;5066332;28;20061;-47
2021/01/22 09:56:45;;;;;;;1.33;1.10;;;13.60;77.40;;;;;;5080223;28;20036;-50
2021/01/22 09:59:11;;;;;;;0.77;0.77;;;13.60;77.40;;;;;;5086004;28;20136;-48
2021/01/22 10:01:37;;;;;;;0.80;0.80;;;13.60;77.50;;;;;;5086073;28;20028;-47
2021/01/22 10:04:03;;;;;;;1.13;0.85;;;13.60;77.40;;;;;;5085895;28;20046;-49
2021/01/22 10:06:30;;;;;;;1.55;0.95;;;13.60;77.40;;;;;;5090090;28;20028;-46
2021/01/22 10:08:56;;;;;;;1.00;0.90;;;13.60;77.50;;;;;;5086106;28;20120;-47
2021/01/22 10:11:22;;;;;;;1.00;0.88;;;13.60;77.40;;;;;;5096562;28;20069;-49
2021/01/22 10:13:55;;;;;;;1.13;1.02;;;13.60;77.50;;;;;;5085970;28;20035;-48
2021/01/22 10:16:25;;;;;;;1.02;0.93;;;13.60;77.50;;;;;;5086006;28;20055;-48
2021/01/22 10:18:56;;;;;;;1.08;0.88;;;13.50;77.30;;;;;;5084540;28;20025;-47
2021/01/22 10:21:22;;;;;;;1.30;1.20;;;13.50;77.30;;;;;;5085779;28;20080;-47
2021/01/22 10:23:49;;;;;;;1.23;1.13;;;13.60;77.50;;;;;;5085400;28;20505;-49
2021/01/22 10:26:16;;;;;;;1.20;1.10;;;13.60;77.50;;;;;;5086098;28;20040;-47
2021/01/22 10:28:43;;;;;;;2.92;1.10;;;13.50;77.40;;;;;;5085655;28;20123;-47
2021/01/22 10:31:09;;;;;;;1.27;1.17;;;13.50;77.40;;;;;;5085392;28;20017;-46
2021/01/22 10:33:35;;;;;;;1.10;1.00;;;13.50;77.40;;;;;;5085591;28;20047;-47
2021/01/22 10:36:02;;;;;;;2.28;1.20;;;13.50;77.40;;;;;;5084289;28;20067;-47
2021/01/22 10:38:29;;;;;;;1.42;1.02;;;13.50;77.40;;;;;;5085751;28;20032;-46
2021/01/22 10:40:55;;;;;;;1.13;1.02;;;13.50;77.40;;;;;;5092902;28;20039;-46
2021/01/22 10:43:22;;;;;;;1.25;0.90;;;13.50;77.40;;;;;;5105419;28;20030;-46
2021/01/22 10:45:49;;;;;;;1.40;1.10;;;13.50;77.40;;;;;;5105846;28;20453;-46
2021/01/22 10:48:16;;;;;;;1.08;0.98;;;13.50;77.50;;;;;;5105824;28;20093;-45
2021/01/22 10:50:42;;;;;;;0.90;0.75;;;13.50;77.40;;;;;;5092554;28;20037;-47
2021/01/22 10:53:08;;;;;;;1.25;1.00;;;13.50;77.40;;;;;;5084713;28;20462;-46
2021/01/22 10:55:35;;;;;;;1.88;1.10;;;13.50;77.40;;;;;;5084774;28;20118;-46
2021/01/22 10:58:01;;;;;;;2.17;1.20;;;13.50;77.40;;;;;;5084904;28;20066;-46
2021/01/22 11:00:27;;;;;;;1.45;1.20;;;13.50;77.50;;;;;;5085257;28;20046;-46
2021/01/22 11:02:53;;;;;;;1.45;1.27;;;13.50;77.50;;;;;;5085399;28;20123;-45
2021/01/22 11:05:19;;;;;;;1.95;1.10;;;13.50;77.50;;;;;;5084776;28;20504;-47
2021/01/22 11:07:46;;;;;;;2.20;1.40;;;13.50;77.50;;;;;;5085139;28;20028;-47
2021/01/22 11:10:12;;;;;;;1.48;1.38;;;13.50;77.40;;;;;;5086460;28;20043;-46
2021/01/22 11:12:38;;;;;;;1.55;1.10;;;13.50;77.50;;;;;;5093671;28;20050;-47
2021/01/22 11:15:06;;;;;;;2.05;1.30;;;13.50;77.50;;;;;;5084472;28;20036;-47
2021/01/22 11:17:32;;;;;;;1.95;1.13;;;13.50;77.50;;;;;;5084733;28;20105;-46
2021/01/22 11:20:02;;;;;;;1.20;1.10;;;13.50;77.50;;;;;;5084822;28;20025;-46
2021/01/22 11:22:29;;;;;;;1.48;1.13;;;13.50;77.50;;;;;;5083477;28;20033;-50
2021/01/22 11:24:55;;;;;;;1.85;1.48;;;13.50;77.50;;;;;;5095438;28;20477;-46
2021/01/22 11:27:21;;;;;;;1.85;1.40;;;13.50;77.50;;;;;;5105219;28;20040;-48
2021/01/22 11:29:47;;;;;;;1.33;1.23;;;13.40;77.50;;;;;;5084823;28;20527;-46
2021/01/22 11:32:14;;;;;;;1.60;1.50;;;13.40;77.60;;;;;;5084548;28;20028;-50
2021/01/22 11:34:40;;;;;;;4.32;1.50;;;13.50;77.60;;;;;;5084171;28;20027;-49
2021/01/22 11:37:06;;;;;;;1.40;1.30;;;13.40;77.50;;;;;;5084555;28;20595;-47
2021/01/22 11:39:35;;;;;;;3.30;1.45;;;13.40;77.50;;;;;;5084337;28;20025;-49
2021/01/22 11:42:05;;;;;;;1.58;1.48;;;13.50;77.60;;;;;;5101131;28;20039;-48
2021/01/22 11:44:31;;;;;;;1.40;1.30;;;13.40;77.60;;;;;;5104118;28;20024;-45
2021/01/22 11:46:57;;;;;;;1.92;1.27;;;13.50;77.60;;;;;;5104381;28;20046;-47
2021/01/22 11:49:24;;;;;;;2.13;1.50;;;13.40;77.50;;;;;;5104533;28;20028;-47
2021/01/22 11:51:50;;;;;;;2.20;1.35;;;13.40;77.50;;;;;;5077192;28;20028;-43
2021/01/22 11:54:16;;;;;;;1.80;1.30;;;13.40;77.50;;;;;;5075731;28;20108;-47
2021/01/22 11:56:42;;;;;;;1.58;1.40;;;13.40;77.50;;;;;;5065787;28;20108;-49
2021/01/22 11:59:09;;;;;;;1.65;1.40;;;13.40;77.50;;;;;;5089719;28;20432;-46
2021/01/22 12:01:35;;;;;;;2.03;1.53;;;13.40;77.60;;;;;;5101060;28;20049;-46
2021/01/22 12:04:02;;;;;;;1.80;1.60;;;13.40;77.60;;;;;;5096521;28;20024;-47
2021/01/22 12:06:28;;;;;;;1.92;1.70;;;13.40;77.60;;;;;;5082221;28;20032;-46
2021/01/22 12:08:54;;;;;;;1.90;1.50;;;13.40;77.60;;;;;;5083982;28;20048;-46
2021/01/22 12:11:20;;;;;;;2.20;1.73;;;13.40;77.50;;;;;;5094165;28;20028;-46
2021/01/22 12:13:46;;;;;;;1.92;1.50;;;13.40;77.60;;;;;;5083680;28;20021;-47
2021/01/22 12:16:13;;;;;;;3.42;1.42;;;13.40;77.60;;;;;;5082095;28;20096;-46
2021/01/22 12:18:39;;;;;;;1.60;1.50;;;13.40;77.60;;;;;;5083780;28;20021;-46
2021/01/22 12:21:06;;;;;;;1.92;1.40;;;13.40;77.60;;;;;;5083492;28;20054;-46
2021/01/22 12:23:33;;;;;;;2.08;1.52;;;13.40;77.60;;;;;;5083473;28;20564;-46
2021/01/22 12:26:00;;;;;;;2.33;1.65;;;13.40;77.60;;;;;;5083531;28;20040;-51
2021/01/22 12:28:27;;;;;;;1.65;1.50;;;13.40;77.60;;;;;;5083366;28;20024;-46
2021/01/22 12:30:53;;;;;;;;;;;13.40;77.60;;;;;;5084031;28;20028;-48
2021/01/22 12:33:19;;;;;;;1.90;1.60;;;13.40;77.60;;;;;;5083538;28;20428;-47
2021/01/22 12:35:49;;;;;;;2.00;1.75;;;13.40;77.60;;;;;;5083224;28;20143;-48
2021/01/22 12:38:18;;;;;;;4.05;1.73;;;13.40;77.60;;;;;;5082295;28;20042;-49
2021/01/22 12:40:44;;;;;;;1.90;1.65;;;13.40;77.70;;;;;;5088858;28;20057;-49
2021/01/22 12:43:11;;;;;;;3.03;2.22;;;13.40;77.70;;;;;;5103393;28;20099;-48
2021/01/22 12:45:37;;;;;;;2.10;1.73;;;13.40;77.70;;;;;;5103257;28;20028;-49
2021/01/22 12:48:06;;;;;;;1.98;1.77;;;13.40;77.60;;;;;;5103698;28;20051;-48
2021/01/22 12:50:32;;;;;;;1.95;1.60;;;13.40;77.60;;;;;;5090806;28;20028;-47
2021/01/22 12:52:59;;;;;;;1.90;1.70;;;13.30;77.60;;;;;;5083184;28;20016;-47